Cape Canaveral AFS Skid Strip Cocoa Beach US
ICAO: KXMR
IATA: XMR
Category: Medium
Scheduled Services: No

Elevation: 10 ft
TransAlt. 18000 ft.

Airport Communications:
ORLANDO APP/DEP:134.95
PMSV METRO:344.6
CAPE TWR:118.625
:239.05

KXMR Zoom In..

If you have problems with the map follow the link
https://www.worldairports.se/pages/airport.php?
ICAO=KXMR

Runways:

(A) RW 13 length 10000 ft width 200 ft
---- / hdg 131

(B) RW 31 length 10000 ft width 200 ft
---- / hdg 311

Location; KXMR
Day. 19 / Time. 00.56 Zulu
* Altimeter: 30.17
* Temperature: 27° c. 80.6°f.
* Wind from: 080° Speed 05 kn.
Dewpoint: 22° c.
Visibility: 10 Statute Miles.
Clouds: Clear (automated report).

KXMR 190056Z AUTO 08005KT 10SM CLR 27/22 A3017 RMK AO2 SLP220 T02650223 $


Wind From 080°
Speed 05 kn.

 
 
jpsmedia.com for Web Design worldairports.se 2018   terms of use